Time;durP1;ratioP1;P1;durP2;ratioP2;P2;SDS_P1;SDS_P2;PMS_P1;PMS_P2;Temp;Humidity;BMP_temperature;BMP_pressure;BME280_temperature;BME280_humidity;BME280_pressure;Samples;Min_cycle;Max_cycle;Signal;HPM_P1;HPM_P2
2022/11/20 00:00:47;;;;;;;6.72;3.78;;;2.40;99.90;;;;;;5049964;28;20017;-73
2022/11/20 00:03:13;;;;;;;6.22;3.58;;;2.40;99.90;;;;;;5017797;28;20091;-72
2022/11/20 00:05:38;;;;;;;5.95;3.80;;;2.30;99.90;;;;;;5016731;28;20485;-72
2022/11/20 00:08:05;;;;;;;5.25;3.38;;;2.40;99.90;;;;;;5029706;28;20035;-72
2022/11/20 00:10:30;;;;;;;7.28;3.58;;;2.40;99.90;;;;;;5018172;28;20042;-72
2022/11/20 00:12:58;;;;;;;4.97;3.30;;;2.30;99.90;;;;;;5033926;28;20371;-73
2022/11/20 00:15:24;;;;;;;6.93;3.28;;;2.40;99.90;;;;;;5017676;28;20025;-73
2022/11/20 00:17:50;;;;;;;5.30;3.13;;;2.40;99.90;;;;;;5034958;28;20375;-73
2022/11/20 00:20:15;;;;;;;7.38;3.03;;;2.40;99.90;;;;;;5048348;28;20028;-72
2022/11/20 00:22:41;;;;;;;6.50;3.22;;;2.40;99.90;;;;;;5032860;28;20025;-72
2022/11/20 00:25:07;;;;;;;7.88;2.92;;;2.40;99.90;;;;;;5033777;28;20029;-73
2022/11/20 00:27:33;;;;;;;8.95;3.35;;;2.40;99.90;;;;;;5048103;28;20173;-73
2022/11/20 00:29:59;;;;;;;7.78;3.60;;;2.40;99.90;;;;;;5012405;28;20071;-72
2022/11/20 00:32:24;;;;;;;4.70;3.10;;;2.40;99.90;;;;;;5036564;28;20097;-72
2022/11/20 00:34:50;;;;;;;4.97;3.30;;;2.40;99.90;;;;;;5018972;28;20409;-72
2022/11/20 00:37:16;;;;;;;5.57;3.17;;;2.50;99.90;;;;;;5035785;28;20540;-73
2022/11/20 00:39:41;;;;;;;5.32;3.20;;;2.40;99.90;;;;;;5014254;28;20037;-72
2022/11/20 00:42:07;;;;;;;5.78;3.25;;;2.40;99.90;;;;;;5033601;28;20397;-72
2022/11/20 00:44:33;;;;;;;7.47;3.40;;;2.40;99.90;;;;;;5033031;28;20033;-72
2022/11/20 00:46:58;;;;;;;6.78;3.83;;;2.40;99.90;;;;;;5038205;28;20067;-72
2022/11/20 00:49:24;;;;;;;5.82;3.13;;;2.40;99.90;;;;;;5021073;28;20041;-73
2022/11/20 00:51:50;;;;;;;5.88;3.40;;;2.40;99.90;;;;;;5050572;28;20416;-72
2022/11/20 00:54:15;;;;;;;5.38;3.08;;;2.40;99.90;;;;;;5021329;28;20025;-73
2022/11/20 00:56:41;;;;;;;5.05;3.13;;;2.40;99.90;;;;;;5017404;28;20024;-72
2022/11/20 00:59:09;;;;;;;6.28;3.15;;;2.40;99.90;;;;;;5040230;28;20032;-73
2022/11/20 01:01:36;;;;;;;5.47;3.25;;;2.40;99.90;;;;;;5033053;28;20021;-72
2022/11/20 01:04:02;;;;;;;5.07;3.42;;;2.40;99.90;;;;;;5021253;28;20029;-72
2022/11/20 01:06:31;;;;;;;6.13;3.80;;;2.40;99.90;;;;;;5017144;28;20059;-72
2022/11/20 01:09:00;;;;;;;11.07;3.72;;;2.40;99.90;;;;;;5020586;28;20029;-72
2022/11/20 01:11:28;;;;;;;6.43;3.47;;;2.30;99.90;;;;;;5020937;28;20021;-72
2022/11/20 01:13:55;;;;;;;6.40;3.20;;;2.40;99.90;;;;;;5033340;28;20037;-72
2022/11/20 01:16:26;;;;;;;6.00;3.30;;;2.40;99.90;;;;;;5035916;28;20014;-72
2022/11/20 01:18:55;;;;;;;5.90;3.47;;;2.40;99.90;;;;;;5020365;28;20116;-72
2022/11/20 01:21:27;;;;;;;5.28;3.33;;;2.30;99.90;;;;;;5047554;28;20038;-72
2022/11/20 01:23:53;;;;;;;6.60;4.18;;;2.40;99.90;;;;;;5020533;28;20024;-73
2022/11/20 01:26:22;;;;;;;5.68;3.38;;;2.40;99.90;;;;;;5036853;28;20512;-74
2022/11/20 01:28:48;;;;;;;5.07;3.38;;;2.40;99.90;;;;;;5018146;28;20025;-72
2022/11/20 01:31:16;;;;;;;6.25;3.63;;;2.40;99.90;;;;;;5002449;28;20401;-72
2022/11/20 01:33:43;;;;;;;5.80;3.63;;;2.40;99.90;;;;;;5019027;28;20014;-72
2022/11/20 01:36:10;;;;;;;6.32;2.95;;;2.40;99.90;;;;;;5017285;28;20083;-72
2022/11/20 01:38:37;;;;;;;7.22;3.40;;;2.40;99.90;;;;;;5038343;28;20083;-72
2022/11/20 01:41:03;;;;;;;7.55;3.85;;;2.30;99.90;;;;;;5020405;28;20029;-72
2022/11/20 01:43:29;;;;;;;5.57;3.35;;;2.40;99.90;;;;;;5038925;28;20500;-72
2022/11/20 01:46:14;;;;;;;6.10;3.65;;;2.40;99.90;;;;;;5017650;28;20092;-73
2022/11/20 01:49:18;;;;;;;8.00;4.20;;;2.40;99.90;;;;;;5039932;28;20033;-72
2022/11/20 01:52:01;;;;;;;5.53;3.33;;;2.40;99.90;;;;;;5039231;28;20040;-73
2022/11/20 01:54:38;;;;;;;6.38;3.85;;;2.40;99.90;;;;;;5034731;28;20074;-72
2022/11/20 01:57:08;;;;;;;6.70;3.55;;;2.40;99.90;;;;;;5051976;28;20013;-71
2022/11/20 01:59:37;;;;;;;5.13;3.30;;;2.40;99.90;;;;;;5028154;28;20030;-72
2022/11/20 02:02:03;;;;;;;6.28;3.55;;;2.40;99.90;;;;;;5039024;28;20091;-72
2022/11/20 02:04:28;;;;;;;7.32;3.22;;;2.40;99.90;;;;;;5016471;28;20029;-73
2022/11/20 02:07:00;;;;;;;5.65;3.17;;;2.40;99.90;;;;;;5018127;28;20037;-73
2022/11/20 02:09:27;;;;;;;7.25;4.07;;;2.30;99.90;;;;;;5031026;28;20083;-73
2022/11/20 02:11:53;;;;;;;9.10;3.78;;;2.30;99.90;;;;;;5037904;28;20548;-72
2022/11/20 02:14:20;;;;;;;5.57;3.33;;;2.30;99.90;;;;;;5039639;28;20128;-72
2022/11/20 02:16:48;;;;;;;6.82;3.80;;;2.30;99.90;;;;;;5035813;28;20038;-72
2022/11/20 02:19:27;;;;;;;6.65;3.88;;;2.30;99.90;;;;;;5020910;28;20033;-73
2022/11/20 02:21:56;;;;;;;6.32;3.65;;;2.40;99.90;;;;;;5018346;28;20200;-73
2022/11/20 02:24:22;;;;;;;5.50;3.83;;;2.40;99.90;;;;;;5052435;28;20025;-72
2022/11/20 02:26:53;;;;;;;6.60;3.70;;;2.30;99.90;;;;;;5048537;28;20606;-73
2022/11/20 02:29:30;;;;;;;6.10;3.63;;;2.40;99.90;;;;;;5036509;28;20109;-72
2022/11/20 02:31:58;;;;;;;5.05;3.22;;;2.30;99.90;;;;;;5035535;28;20023;-73
2022/11/20 02:34:24;;;;;;;6.82;4.22;;;2.30;99.90;;;;;;5019597;28;20036;-73
2022/11/20 02:36:51;;;;;;;9.73;4.05;;;2.30;99.90;;;;;;5003705;28;20025;-72
2022/11/20 02:39:18;;;;;;;7.03;3.75;;;2.30;99.90;;;;;;5029625;28;20028;-72
2022/11/20 02:41:43;;;;;;;7.47;3.60;;;2.30;99.90;;;;;;5017941;28;20064;-73
2022/11/20 02:44:09;;;;;;;6.43;3.30;;;2.30;99.90;;;;;;5035331;28;20102;-72
2022/11/20 02:46:35;;;;;;;7.35;3.70;;;2.40;99.90;;;;;;5052858;28;20064;-72
2022/11/20 02:49:05;;;;;;;7.95;3.75;;;2.40;99.90;;;;;;5019671;28;20109;-72
2022/11/20 02:51:31;;;;;;;6.57;3.75;;;2.40;99.90;;;;;;5017440;28;20041;-72
2022/11/20 02:53:57;;;;;;;7.47;3.80;;;2.40;99.90;;;;;;5034554;28;20040;-73
2022/11/20 02:56:23;;;;;;;6.20;3.55;;;2.40;99.90;;;;;;5037910;28;20025;-72
2022/11/20 02:58:48;;;;;;;5.80;3.50;;;2.40;99.90;;;;;;4997418;28;20029;-72
2022/11/20 03:01:14;;;;;;;9.57;4.03;;;2.40;99.90;;;;;;5018971;28;20037;-73
2022/11/20 03:03:40;;;;;;;7.25;3.88;;;2.40;99.90;;;;;;5036798;28;20459;-72
2022/11/20 03:06:06;;;;;;;6.53;3.55;;;2.40;99.90;;;;;;5035847;28;20447;-72
2022/11/20 03:08:32;;;;;;;5.32;3.70;;;2.40;99.90;;;;;;5016250;28;20040;-72
2022/11/20 03:11:05;;;;;;;6.32;4.13;;;2.40;99.90;;;;;;5048136;28;20036;-72
2022/11/20 03:13:32;;;;;;;6.57;4.28;;;2.30;99.90;;;;;;5033746;28;20116;-72
2022/11/20 03:16:04;;;;;;;6.95;3.85;;;2.30;99.90;;;;;;5029795;28;20033;-72
2022/11/20 03:18:30;;;;;;;5.63;3.67;;;2.30;99.90;;;;;;5036453;28;20405;-72
2022/11/20 03:20:59;;;;;;;5.47;3.55;;;2.30;99.90;;;;;;5051287;28;20037;-73
2022/11/20 03:23:25;;;;;;;5.63;3.50;;;2.30;99.90;;;;;;5015839;28;20037;-73
2022/11/20 03:25:51;;;;;;;7.53;3.95;;;2.30;99.90;;;;;;5031711;28;20045;-72
2022/11/20 03:28:16;;;;;;;7.32;3.70;;;2.30;99.90;;;;;;5036289;28;20514;-73
2022/11/20 03:30:42;;;;;;;7.75;3.80;;;2.30;99.90;;;;;;5051117;28;20104;-72
2022/11/20 03:33:09;;;;;;;8.52;3.80;;;2.30;99.90;;;;;;5035724;28;20025;-72
2022/11/20 03:35:35;;;;;;;5.47;3.72;;;2.30;99.90;;;;;;5038181;28;20385;-72
2022/11/20 03:38:01;;;;;;;5.72;3.95;;;2.30;99.90;;;;;;5037057;28;20029;-73
2022/11/20 03:40:26;;;;;;;6.03;3.90;;;2.30;99.90;;;;;;5036458;28;20100;-73
2022/11/20 03:42:52;;;;;;;5.68;3.70;;;2.30;99.90;;;;;;5032279;28;20036;-73
2022/11/20 03:45:18;;;;;;;7.10;4.07;;;2.30;99.90;;;;;;5047114;28;20059;-72
2022/11/20 03:47:45;;;;;;;8.27;4.30;;;2.30;99.90;;;;;;5036924;28;21086;-73
2022/11/20 03:50:13;;;;;;;7.35;4.20;;;2.30;99.90;;;;;;5033088;28;20112;-72
2022/11/20 03:52:39;;;;;;;6.20;3.72;;;2.30;99.90;;;;;;5039487;28;20013;-73
2022/11/20 03:55:06;;;;;;;5.93;4.00;;;2.30;99.90;;;;;;5036757;28;20089;-72
2022/11/20 03:57:32;;;;;;;7.65;3.97;;;2.30;99.90;;;;;;5019401;28;20440;-74
2022/11/20 03:59:58;;;;;;;6.65;3.78;;;2.30;99.90;;;;;;5000154;28;20021;-73
2022/11/20 04:02:23;;;;;;;4.95;3.47;;;2.30;99.90;;;;;;5039493;28;20036;-73
2022/11/20 04:04:49;;;;;;;7.85;3.95;;;2.30;99.90;;;;;;5046930;28;22365;-72
2022/11/20 04:07:15;;;;;;;6.43;4.10;;;2.30;99.90;;;;;;5036860;28;20116;-73
2022/11/20 04:09:41;;;;;;;6.13;4.05;;;2.30;99.90;;;;;;5036170;28;20505;-72
2022/11/20 04:12:06;;;;;;;8.20;4.10;;;2.30;99.90;;;;;;4999852;28;20065;-72
2022/11/20 04:14:32;;;;;;;6.97;3.83;;;2.30;99.90;;;;;;5038219;28;20397;-73
2022/11/20 04:16:58;;;;;;;9.40;4.00;;;2.30;99.90;;;;;;5030664;28;20397;-73
2022/11/20 04:19:23;;;;;;;6.78;3.78;;;2.30;99.90;;;;;;5020146;28;20033;-73
2022/11/20 04:21:49;;;;;;;6.15;3.78;;;2.30;99.90;;;;;;5049556;28;20048;-72
2022/11/20 04:24:15;;;;;;;5.88;3.70;;;2.30;99.90;;;;;;5039674;28;20140;-72
2022/11/20 04:26:41;;;;;;;7.95;3.65;;;2.30;99.90;;;;;;5020409;28;20052;-72
2022/11/20 04:29:06;;;;;;;5.60;3.70;;;2.30;99.90;;;;;;5037922;28;20489;-73
2022/11/20 04:31:34;;;;;;;5.43;3.70;;;2.30;99.90;;;;;;5004162;28;20025;-72
2022/11/20 04:34:02;;;;;;;8.18;4.13;;;2.20;99.90;;;;;;5020840;28;20033;-72
2022/11/20 04:36:29;;;;;;;5.65;3.90;;;2.30;99.90;;;;;;5049672;28;20453;-73
2022/11/20 04:38:57;;;;;;;5.05;3.60;;;2.30;99.90;;;;;;5039653;28;20397;-73
2022/11/20 04:41:26;;;;;;;6.65;4.07;;;2.30;99.90;;;;;;5054638;28;20024;-73
2022/11/20 04:43:58;;;;;;;20.45;4.70;;;2.20;99.90;;;;;;5037667;28;20722;-73
2022/11/20 04:46:26;;;;;;;8.98;4.03;;;2.30;99.90;;;;;;5018216;28;20044;-72
2022/11/20 04:48:52;;;;;;;5.95;4.03;;;2.20;99.90;;;;;;5021245;28;20025;-73
2022/11/20 04:51:17;;;;;;;8.48;4.15;;;2.20;99.90;;;;;;5020917;28;20029;-73
2022/11/20 04:53:43;;;;;;;7.25;3.70;;;2.20;99.90;;;;;;5041415;28;20458;-72
2022/11/20 04:56:11;;;;;;;6.93;3.97;;;2.20;99.90;;;;;;5019364;28;20494;-72
2022/11/20 04:58:37;;;;;;;7.70;4.00;;;2.20;99.90;;;;;;5023718;28;20024;-72
2022/11/20 05:01:12;;;;;;;5.22;3.75;;;2.20;99.90;;;;;;5054603;28;20170;-72
2022/11/20 05:03:38;;;;;;;6.22;3.58;;;2.20;99.90;;;;;;5042475;28;20052;-72
2022/11/20 05:06:06;;;;;;;5.25;3.60;;;2.20;99.90;;;;;;5014828;28;20592;-72
2022/11/20 05:08:32;;;;;;;7.00;4.07;;;2.20;99.90;;;;;;5039365;28;20037;-72
2022/11/20 05:11:08;;;;;;;5.72;3.72;;;2.20;99.90;;;;;;5019845;28;20115;-73
2022/11/20 05:13:34;;;;;;;5.60;3.88;;;2.20;99.90;;;;;;5037141;28;20048;-72
2022/11/20 05:16:06;;;;;;;6.80;3.92;;;2.20;99.90;;;;;;5032034;28;20025;-72
2022/11/20 05:18:33;;;;;;;5.45;3.88;;;2.20;99.90;;;;;;5056416;28;20029;-72
2022/11/20 05:20:59;;;;;;;8.10;4.10;;;2.20;99.90;;;;;;5005270;28;20437;-73
2022/11/20 05:23:27;;;;;;;9.48;4.63;;;2.20;99.90;;;;;;5050536;28;20033;-72
2022/11/20 05:25:57;;;;;;;7.22;4.00;;;2.20;99.90;;;;;;5016990;28;20099;-73
2022/11/20 05:28:23;;;;;;;8.00;4.47;;;2.20;99.90;;;;;;5038285;28;20025;-72
2022/11/20 05:30:48;;;;;;;7.63;3.88;;;2.20;99.90;;;;;;5015804;28;20366;-73
2022/11/20 05:33:14;;;;;;;6.57;4.13;;;2.20;99.90;;;;;;5002248;28;20036;-72
2022/11/20 05:35:40;;;;;;;8.55;3.88;;;2.20;99.90;;;;;;5033748;28;20044;-73
2022/11/20 05:38:06;;;;;;;7.68;4.15;;;2.10;99.90;;;;;;5040119;28;20059;-71
2022/11/20 05:40:32;;;;;;;6.47;4.30;;;2.20;99.90;;;;;;5019388;28;20025;-71
2022/11/20 05:42:57;;;;;;;5.35;4.15;;;2.10;99.90;;;;;;5037161;28;20456;-71
2022/11/20 05:45:23;;;;;;;7.60;4.20;;;2.10;99.90;;;;;;5033057;28;20037;-72
2022/11/20 05:47:49;;;;;;;8.27;4.40;;;2.10;99.90;;;;;;5018014;28;20047;-72
2022/11/20 05:50:15;;;;;;;7.85;4.20;;;2.10;99.90;;;;;;5038486;28;20128;-71
2022/11/20 05:52:41;;;;;;;5.38;3.67;;;2.10;99.90;;;;;;5019400;28;20464;-72
2022/11/20 05:55:07;;;;;;;6.53;4.03;;;2.10;99.90;;;;;;5018931;28;20029;-72
2022/11/20 05:57:33;;;;;;;7.93;3.83;;;2.10;99.90;;;;;;5037040;28;20025;-72
2022/11/20 05:59:58;;;;;;;6.68;4.65;;;2.10;99.90;;;;;;5037501;28;20374;-72
2022/11/20 06:02:24;;;;;;;7.82;4.75;;;2.10;99.90;;;;;;5018336;28;20033;-72
2022/11/20 06:04:50;;;;;;;6.10;4.00;;;2.10;99.90;;;;;;5033928;28;20026;-72
2022/11/20 06:07:16;;;;;;;6.68;4.10;;;2.10;99.90;;;;;;5003899;28;20127;-71
2022/11/20 06:09:42;;;;;;;9.65;4.72;;;2.10;99.90;;;;;;5017165;28;20033;-72
2022/11/20 06:12:08;;;;;;;6.90;4.88;;;2.10;99.90;;;;;;5049645;28;20068;-72
2022/11/20 06:14:34;;;;;;;9.85;4.93;;;2.10;99.90;;;;;;5036408;28;20032;-72
2022/11/20 06:17:00;;;;;;;9.65;5.78;;;2.10;99.90;;;;;;5036998;28;20025;-72
2022/11/20 06:19:26;;;;;;;11.73;6.28;;;2.10;99.90;;;;;;5013970;28;20033;-72
2022/11/20 06:21:51;;;;;;;9.77;5.82;;;2.10;99.90;;;;;;5035198;28;20123;-72
2022/11/20 06:24:18;;;;;;;12.07;6.63;;;2.10;99.90;;;;;;5019247;28;20025;-72
2022/11/20 06:26:44;;;;;;;10.63;6.35;;;2.10;99.90;;;;;;5019064;28;20021;-72
2022/11/20 06:29:10;;;;;;;12.65;5.85;;;2.10;99.90;;;;;;5037156;28;20020;-72
2022/11/20 06:31:37;;;;;;;10.32;6.60;;;2.10;99.90;;;;;;5036837;28;20378;-72
2022/11/20 06:34:06;;;;;;;11.05;6.30;;;2.10;99.90;;;;;;5013519;28;20100;-71
2022/11/20 06:36:32;;;;;;;11.35;6.25;;;2.10;99.90;;;;;;5036229;28;20028;-72
2022/11/20 06:38:59;;;;;;;8.38;5.20;;;2.10;99.90;;;;;;5016799;28;20048;-72
2022/11/20 06:41:25;;;;;;;8.77;5.72;;;2.10;99.90;;;;;;5018976;28;20029;-72
2022/11/20 06:43:51;;;;;;;9.25;5.50;;;2.10;99.90;;;;;;5030930;28;20460;-72
2022/11/20 06:46:19;;;;;;;9.48;5.60;;;2.10;99.90;;;;;;5020116;28;20397;-72
2022/11/20 06:48:45;;;;;;;10.20;4.60;;;2.10;99.90;;;;;;5016555;28;20103;-72
2022/11/20 06:51:12;;;;;;;9.23;4.70;;;3.80;99.90;;;;;;5034317;28;20025;-72
2022/11/20 06:53:38;;;;;;;7.95;4.50;;;4.30;99.90;;;;;;5037437;28;20025;-72
2022/11/20 06:56:05;;;;;;;7.10;3.92;;;3.60;99.90;;;;;;5037148;28;20017;-73
2022/11/20 06:58:33;;;;;;;8.02;4.43;;;3.10;99.90;;;;;;5037907;28;20244;-72
2022/11/20 07:01:08;;;;;;;8.82;4.50;;;4.10;99.90;;;;;;5000115;28;20033;-73
2022/11/20 07:03:34;;;;;;;9.05;4.05;;;3.40;99.90;;;;;;5035359;28;20116;-72
2022/11/20 07:06:01;;;;;;;9.07;4.35;;;3.00;99.90;;;;;;5001271;28;20037;-73
2022/11/20 07:08:27;;;;;;;7.78;4.10;;;2.80;99.90;;;;;;5050055;28;20102;-73
2022/11/20 07:11:00;;;;;;;7.18;3.53;;;2.60;99.90;;;;;;5048538;28;20195;-72
2022/11/20 07:13:27;;;;;;;6.78;4.25;;;2.50;99.90;;;;;;5017151;28;20021;-72
2022/11/20 07:15:52;;;;;;;7.30;3.88;;;2.40;99.90;;;;;;5053376;28;20040;-73
2022/11/20 07:18:18;;;;;;;7.40;4.07;;;2.30;99.90;;;;;;5037262;28;20025;-73
2022/11/20 07:20:44;;;;;;;7.25;4.07;;;2.40;99.90;;;;;;5015108;28;20497;-72
2022/11/20 07:23:09;;;;;;;7.07;3.97;;;2.40;99.90;;;;;;5051382;28;20063;-72
2022/11/20 07:25:35;;;;;;;6.63;4.28;;;2.30;99.90;;;;;;5032373;28;20083;-72
2022/11/20 07:28:01;;;;;;;9.82;4.45;;;2.30;99.90;;;;;;5033584;28;20040;-73
2022/11/20 07:30:28;;;;;;;8.20;4.07;;;2.30;99.90;;;;;;5034005;28;20037;-72
2022/11/20 07:32:55;;;;;;;6.55;4.40;;;2.30;99.90;;;;;;5015492;28;20037;-72
2022/11/20 07:35:22;;;;;;;6.85;4.05;;;2.30;99.90;;;;;;5032242;28;20116;-73
2022/11/20 07:37:48;;;;;;;6.40;4.35;;;2.20;99.90;;;;;;5036019;28;20021;-73
2022/11/20 07:40:15;;;;;;;6.20;3.97;;;2.20;99.90;;;;;;5037357;28;20025;-72
2022/11/20 07:42:51;;;;;;;9.52;4.22;;;2.20;99.90;;;;;;5017438;28;20032;-72
2022/11/20 07:45:18;;;;;;;9.35;4.22;;;2.20;99.90;;;;;;5014498;28;20504;-73
2022/11/20 07:47:44;;;;;;;7.65;5.18;;;2.20;99.90;;;;;;5030618;28;20025;-73
2022/11/20 07:50:10;;;;;;;6.32;3.58;;;2.30;99.90;;;;;;5032236;28;20032;-73
2022/11/20 07:52:36;;;;;;;7.45;4.05;;;2.30;99.90;;;;;;5034328;28;20059;-73
2022/11/20 07:55:02;;;;;;;8.40;4.10;;;2.20;99.90;;;;;;5038624;28;20053;-73
2022/11/20 07:57:28;;;;;;;7.90;4.18;;;2.30;99.90;;;;;;5003311;28;20037;-73
2022/11/20 07:59:53;;;;;;;6.90;3.85;;;2.30;99.90;;;;;;5018566;28;20726;-73
2022/11/20 08:02:19;;;;;;;8.10;4.05;;;2.30;99.90;;;;;;5016868;28;20034;-73
2022/11/20 08:04:45;;;;;;;5.63;3.45;;;2.30;99.90;;;;;;5008656;28;21225;-73
2022/11/20 08:07:10;;;;;;;6.82;4.53;;;2.20;99.90;;;;;;5029580;28;20038;-72
2022/11/20 08:09:36;;;;;;;8.80;4.68;;;2.30;99.90;;;;;;5020332;28;20040;-72
2022/11/20 08:14:46;;;;;;;6.82;4.30;;;2.20;99.90;;;;;;5031662;28;20028;-73
2022/11/20 08:17:12;;;;;;;10.20;4.68;;;2.20;99.90;;;;;;5050660;28;20021;-73
2022/11/20 08:19:38;;;;;;;7.97;4.38;;;2.30;99.90;;;;;;5036630;28;20064;-74
2022/11/20 08:22:03;;;;;;;8.25;5.05;;;2.30;99.90;;;;;;5016216;28;20022;-73
2022/11/20 08:24:29;;;;;;;7.38;4.63;;;2.30;99.90;;;;;;5038414;28;20038;-73
2022/11/20 08:26:58;;;;;;;6.13;3.72;;;2.30;99.90;;;;;;5021270;28;20515;-73
2022/11/20 08:29:24;;;;;;;8.30;4.07;;;2.30;99.90;;;;;;5037482;28;20403;-73
2022/11/20 08:31:50;;;;;;;9.10;3.72;;;2.30;99.90;;;;;;5054605;28;20035;-72
2022/11/20 08:34:15;;;;;;;5.20;3.90;;;2.30;99.90;;;;;;5016084;28;20455;-73
2022/11/20 08:36:41;;;;;;;5.80;4.18;;;2.30;99.90;;;;;;5033271;28;20025;-73
2022/11/20 08:39:07;;;;;;;5.82;3.25;;;2.40;99.90;;;;;;5053969;28;20037;-73
2022/11/20 08:41:33;;;;;;;5.55;3.10;;;2.40;99.90;;;;;;5018281;28;20033;-72
2022/11/20 08:44:01;;;;;;;5.97;4.00;;;2.40;99.90;;;;;;5040365;28;20434;-72
2022/11/20 08:46:33;;;;;;;4.80;2.72;;;2.40;99.90;;;;;;5038073;28;20497;-72
2022/11/20 08:48:58;;;;;;;5.25;3.30;;;2.40;99.90;;;;;;5019194;28;20030;-72
2022/11/20 08:51:24;;;;;;;4.30;2.67;;;2.30;99.90;;;;;;5019104;28;20025;-73
2022/11/20 08:53:50;;;;;;;4.43;2.90;;;2.30;99.90;;;;;;5019516;28;20502;-72
2022/11/20 08:56:17;;;;;;;3.22;2.45;;;2.30;99.90;;;;;;5017585;28;20028;-74
2022/11/20 08:58:43;;;;;;;4.47;2.58;;;2.30;99.90;;;;;;5035046;28;20595;-73
2022/11/20 09:01:09;;;;;;;4.50;2.90;;;2.30;99.90;;;;;;5036665;28;20040;-74
2022/11/20 09:03:35;;;;;;;5.90;2.80;;;2.30;99.90;;;;;;5028541;28;20270;-73
2022/11/20 09:06:06;;;;;;;4.68;3.13;;;2.30;99.90;;;;;;5018047;28;20029;-73
2022/11/20 09:08:33;;;;;;;5.22;3.67;;;2.30;99.90;;;;;;5039512;28;20033;-72
2022/11/20 09:10:59;;;;;;;5.30;3.50;;;2.40;99.90;;;;;;5034878;28;20560;-73
2022/11/20 09:13:27;;;;;;;5.93;3.30;;;2.40;99.90;;;;;;5037155;28;20045;-74
2022/11/20 09:15:58;;;;;;;4.35;3.28;;;2.40;99.90;;;;;;5016567;28;20171;-73
2022/11/20 09:18:25;;;;;;;4.30;2.90;;;2.40;99.90;;;;;;5035892;28;20028;-74
2022/11/20 09:20:50;;;;;;;4.38;3.40;;;2.50;99.90;;;;;;5019723;28;20028;-72
2022/11/20 09:23:17;;;;;;;6.32;3.70;;;2.60;99.90;;;;;;5033005;28;20032;-72
2022/11/20 09:25:43;;;;;;;4.93;3.15;;;2.60;99.90;;;;;;5035212;28;20025;-72
2022/11/20 09:28:09;;;;;;;5.43;3.70;;;2.60;99.90;;;;;;4994325;28;20092;-72
2022/11/20 09:30:35;;;;;;;5.47;3.38;;;2.50;99.90;;;;;;5016675;28;20029;-72
2022/11/20 09:33:01;;;;;;;4.82;3.70;;;2.60;99.90;;;;;;5054209;28;20030;-72
2022/11/20 09:35:26;;;;;;;5.80;3.40;;;2.60;99.90;;;;;;5015873;28;20040;-72
2022/11/20 09:37:52;;;;;;;4.72;3.65;;;2.60;99.90;;;;;;5036664;28;20029;-72
2022/11/20 09:40:30;;;;;;;6.13;3.35;;;2.60;99.90;;;;;;5032268;28;20120;-72
2022/11/20 09:43:20;;;;;;;5.22;3.15;;;2.50;99.90;;;;;;5050341;28;20075;-73
2022/11/20 09:46:04;;;;;;;6.65;3.90;;;2.50;99.90;;;;;;5051513;28;20494;-73
2022/11/20 09:48:37;;;;;;;5.78;3.47;;;2.40;99.90;;;;;;5050768;28;20053;-73
2022/11/20 09:51:39;;;;;;;5.15;3.35;;;2.30;99.90;;;;;;5051001;28;20033;-73
2022/11/20 09:54:17;;;;;;;5.45;3.30;;;2.40;99.90;;;;;;4989915;28;20425;-71
2022/11/20 09:56:47;;;;;;;6.57;3.72;;;2.40;99.90;;;;;;5035056;28;20385;-71
2022/11/20 09:59:27;;;;;;;4.70;2.67;;;2.40;99.90;;;;;;5034644;28;20032;-71
2022/11/20 10:01:55;;;;;;;4.25;2.90;;;2.40;99.90;;;;;;5036704;28;20068;-72
2022/11/20 10:04:22;;;;;;;3.83;2.75;;;2.40;99.90;;;;;;5050438;28;20057;-72
2022/11/20 10:07:00;;;;;;;4.70;2.92;;;2.40;99.90;;;;;;5048799;28;20037;-72
2022/11/20 10:09:34;;;;;;;5.68;3.20;;;2.50;99.90;;;;;;5016088;28;20030;-73
2022/11/20 10:12:03;;;;;;;4.50;3.17;;;2.60;99.90;;;;;;5037471;28;20029;-72
2022/11/20 10:14:38;;;;;;;3.85;2.95;;;2.70;99.90;;;;;;5051448;28;20030;-72
2022/11/20 10:17:21;;;;;;;4.45;3.38;;;2.80;99.90;;;;;;5017486;28;20046;-73
2022/11/20 10:19:53;;;;;;;4.63;2.97;;;2.90;99.90;;;;;;5013115;28;20032;-73
2022/11/20 10:22:43;;;;;;;5.72;3.45;;;2.90;99.90;;;;;;5036776;28;20447;-73
2022/11/20 10:25:19;;;;;;;3.75;3.35;;;2.90;99.90;;;;;;5033997;28;20588;-71
2022/11/20 10:27:48;;;;;;;4.82;2.90;;;2.90;99.90;;;;;;5035209;28;20432;-72
2022/11/20 10:30:17;;;;;;;4.25;3.20;;;3.00;99.90;;;;;;5049422;28;20029;-72
2022/11/20 10:32:49;;;;;;;5.05;3.08;;;3.00;99.90;;;;;;5016464;28;20032;-72
2022/11/20 10:35:47;;;;;;;4.85;3.00;;;3.00;99.90;;;;;;5013575;28;20040;-72
2022/11/20 10:38:17;;;;;;;4.95;3.10;;;3.10;99.90;;;;;;4984223;28;20025;-72
2022/11/20 10:40:54;;;;;;;5.63;3.53;;;3.10;99.90;;;;;;4998676;28;20026;-72
2022/11/20 10:43:33;;;;;;;4.53;3.35;;;3.10;99.90;;;;;;5038246;28;20107;-72
2022/11/20 10:46:04;;;;;;;5.15;3.47;;;3.20;99.90;;;;;;4998998;28;20573;-71
2022/11/20 10:48:32;;;;;;;5.13;3.70;;;3.20;99.90;;;;;;5044738;28;20033;-72
2022/11/20 10:51:13;;;;;;;5.75;3.60;;;3.20;99.90;;;;;;5033911;28;20116;-73
2022/11/20 10:53:45;;;;;;;5.88;3.90;;;3.10;99.90;;;;;;5039676;28;20072;-74
2022/11/20 10:56:13;;;;;;;4.82;3.50;;;3.10;99.90;;;;;;5034945;28;20584;-74
2022/11/20 10:59:13;;;;;;;4.88;3.63;;;3.10;99.90;;;;;;5013319;28;20020;-71
2022/11/20 11:01:42;;;;;;;4.40;3.40;;;3.20;99.90;;;;;;5024984;28;20385;-75
2022/11/20 11:04:28;;;;;;;7.13;3.90;;;3.10;99.90;;;;;;5012243;28;20017;-74
2022/11/20 11:07:07;;;;;;;5.72;3.92;;;3.10;99.90;;;;;;5004409;28;20052;-74
2022/11/20 11:09:38;;;;;;;6.97;3.45;;;3.10;99.90;;;;;;5053011;28;20036;-75
2022/11/20 11:12:09;;;;;;;6.57;4.25;;;3.10;99.90;;;;;;5012856;28;20473;-74
2022/11/20 11:14:51;;;;;;;6.53;3.90;;;3.10;99.90;;;;;;4991807;28;20442;-74
2022/11/20 11:17:31;;;;;;;5.28;3.33;;;3.10;99.90;;;;;;4990068;28;20107;-72
2022/11/20 11:20:04;;;;;;;4.95;3.53;;;3.00;99.90;;;;;;5009405;28;20033;-74
2022/11/20 11:22:32;;;;;;;5.15;3.65;;;2.90;99.90;;;;;;5012665;28;20044;-74
2022/11/20 11:24:58;;;;;;;4.47;3.13;;;3.00;99.90;;;;;;5031523;28;20025;-74
2022/11/20 11:27:24;;;;;;;5.18;3.65;;;3.10;99.90;;;;;;5035604;28;20037;-73
2022/11/20 11:30:03;;;;;;;5.03;3.80;;;3.20;99.90;;;;;;5015935;28;20037;-74
2022/11/20 11:32:28;;;;;;;4.72;2.92;;;3.20;99.90;;;;;;5044902;28;20409;-74
2022/11/20 11:35:06;;;;;;;4.82;3.35;;;3.20;99.90;;;;;;5034812;28;20025;-73
2022/11/20 11:37:37;;;;;;;5.80;3.70;;;3.20;99.90;;;;;;5035065;28;20033;-73
2022/11/20 11:40:04;;;;;;;;;;;3.20;99.90;;;;;;4998539;28;20374;-73
2022/11/20 11:42:30;;;;;;;4.07;3.28;;;3.20;99.90;;;;;;5033888;28;20356;-74
2022/11/20 11:45:06;;;;;;;4.43;3.35;;;3.10;99.90;;;;;;5016195;28;20025;-74
2022/11/20 11:47:46;;;;;;;5.97;4.00;;;3.10;99.90;;;;;;5028157;28;20036;-74
2022/11/20 11:50:11;;;;;;;4.07;3.35;;;3.10;99.90;;;;;;5025074;28;20040;-73
2022/11/20 11:52:44;;;;;;;4.15;3.40;;;3.10;99.90;;;;;;5051419;28;20021;-72
2022/11/20 11:55:34;;;;;;;5.55;3.70;;;3.10;99.90;;;;;;5048202;28;20532;-72
2022/11/20 11:58:06;;;;;;;4.35;2.78;;;3.10;99.90;;;;;;5027308;28;20597;-73
2022/11/20 12:00:33;;;;;;;4.65;2.30;;;3.10;99.90;;;;;;5033966;28;20044;-74
2022/11/20 12:03:05;;;;;;;3.42;2.03;;;3.10;99.90;;;;;;5034427;28;20033;-73
2022/11/20 12:05:42;;;;;;;4.63;2.95;;;3.20;99.90;;;;;;5012501;28;20068;-73
2022/11/20 12:08:23;;;;;;;3.08;2.28;;;3.20;99.90;;;;;;5032210;28;20700;-73
2022/11/20 12:10:53;;;;;;;2.38;1.75;;;3.20;99.90;;;;;;5025192;28;20055;-72
2022/11/20 12:13:39;;;;;;;3.08;2.03;;;3.20;99.90;;;;;;5030242;28;20026;-73
2022/11/20 12:16:09;;;;;;;3.65;1.80;;;3.20;99.90;;;;;;5029576;28;20025;-71
2022/11/20 12:18:34;;;;;;;3.40;2.03;;;3.20;99.90;;;;;;5021361;28;20030;-72
2022/11/20 12:21:06;;;;;;;4.18;2.58;;;3.20;99.90;;;;;;5014784;28;20044;-72
2022/11/20 12:23:47;;;;;;;2.85;2.20;;;3.30;99.90;;;;;;5026284;28;20033;-72
2022/11/20 12:26:35;;;;;;;2.85;2.28;;;3.30;99.90;;;;;;5046982;28;20036;-73
2022/11/20 12:29:11;;;;;;;3.20;2.20;;;3.20;99.90;;;;;;5040978;28;20109;-73
2022/11/20 12:32:01;;;;;;;3.22;2.33;;;3.20;99.90;;;;;;5019887;28;20033;-73
2022/11/20 12:34:32;;;;;;;4.20;2.63;;;3.10;99.90;;;;;;4993002;28;20119;-73
2022/11/20 12:37:19;;;;;;;4.47;2.42;;;3.10;99.90;;;;;;5029946;28;20021;-73
2022/11/20 12:39:50;;;;;;;4.20;2.80;;;3.10;99.90;;;;;;5046020;28;20043;-73
2022/11/20 12:45:28;;;;;;;3.35;2.53;;;3.00;99.90;;;;;;5037609;28;20103;-73
2022/11/20 12:48:12;;;;;;;4.70;3.30;;;3.10;99.90;;;;;;5050220;28;20043;-74
2022/11/20 12:51:15;;;;;;;4.28;2.92;;;3.10;99.90;;;;;;5038692;28;20034;-72
2022/11/20 12:54:04;;;;;;;5.45;2.90;;;3.10;99.90;;;;;;5038009;28;20033;-74
2022/11/20 12:56:41;;;;;;;4.53;2.75;;;3.40;99.90;;;;;;5009617;28;20048;-72
2022/11/20 12:59:26;;;;;;;3.70;2.83;;;3.70;99.90;;;;;;5039255;28;20025;-73
2022/11/20 13:02:00;;;;;;;1001.45;470.45;;;3.50;99.90;;;;;;5046202;28;20385;-73
2022/11/20 13:04:35;;;;;;;594.97;296.75;;;3.60;99.90;;;;;;5014774;28;20035;-74
2022/11/20 13:07:04;;;;;;;427.38;214.75;;;3.50;99.90;;;;;;5027736;28;20066;-73
2022/11/20 13:09:31;;;;;;;31.45;16.63;;;3.50;99.90;;;;;;5023032;28;20025;-73
2022/11/20 13:12:06;;;;;;;5.30;4.00;;;3.60;99.90;;;;;;5020976;28;20394;-73